Time;durP1;ratioP1;P1;durP2;ratioP2;P2;SDS_P1;SDS_P2;PMS_P1;PMS_P2;Temp;Humidity;BMP_temperature;BMP_pressure;BME280_temperature;BME280_humidity;BME280_pressure;Samples;Min_cycle;Max_cycle;Signal;HPM_P1;HPM_P2
2022/02/07 00:01:38;;;;;;;1.80;0.10;;;;;;;0.84;100.00;94839.72;5072023;28;24525;-71
2022/02/07 00:04:06;;;;;;;0.20;0.20;;;;;;;0.79;100.00;94861.19;5071975;28;25097;-71
2022/02/07 00:06:32;;;;;;;0.00;0.00;;;;;;;0.72;100.00;94853.78;5071559;28;24471;-71
2022/02/07 00:08:59;;;;;;;0.22;0.10;;;;;;;0.73;100.00;94852.06;5072121;28;24422;-71
2022/02/07 00:11:26;;;;;;;0.00;0.00;;;;;;;0.71;100.00;94894.63;5071953;28;24430;-71
2022/02/07 00:13:53;;;;;;;0.10;0.00;;;;;;;0.58;100.00;94911.25;5071928;28;24422;-71
2022/02/07 00:16:19;;;;;;;0.70;0.10;;;;;;;0.61;100.00;94916.25;5071759;28;24415;-71
2022/02/07 00:18:46;;;;;;;0.00;0.00;;;;;;;0.70;100.00;94887.84;5071643;28;24464;-71
2022/02/07 00:21:12;;;;;;;0.70;0.10;;;;;;;1.15;100.00;94889.47;5071516;28;24745;-71
2022/02/07 00:23:38;;;;;;;0.00;0.00;;;;;;;0.74;100.00;94914.88;5071865;28;24414;-71
2022/02/07 00:26:05;;;;;;;0.08;0.00;;;;;;;0.75;100.00;94923.38;5071571;28;24986;-71
2022/02/07 00:28:33;;;;;;;0.00;0.00;;;;;;;0.62;100.00;94913.63;5071388;28;24437;-69
2022/02/07 00:30:59;;;;;;;0.20;0.10;;;;;;;0.59;100.00;94908.66;5071404;28;24835;-70
2022/02/07 00:33:26;;;;;;;0.00;0.00;;;;;;;0.29;100.00;94917.44;5071453;28;24419;-70
2022/02/07 00:35:52;;;;;;;0.10;0.10;;;;;;;0.29;100.00;94955.63;5071576;28;24422;-70
2022/02/07 00:38:19;;;;;;;0.30;0.10;;;;;;;0.14;100.00;94955.28;5071200;28;24442;-70
2022/02/07 00:41:01;;;;;;;0.22;0.10;;;;;;;0.08;100.00;94983.53;5071145;28;25034;-71
2022/02/07 00:43:36;;;;;;;0.25;0.20;;;;;;;0.07;100.00;94986.94;5071177;28;24435;-71
2022/02/07 00:46:09;;;;;;;0.20;0.10;;;;;;;0.02;100.00;95005.81;5063321;28;24476;-71
2022/02/07 00:48:36;;;;;;;0.20;0.10;;;;;;;-0.02;100.00;95018.63;5071165;28;24468;-71
2022/02/07 00:51:03;;;;;;;0.38;0.10;;;;;;;-0.06;100.00;94999.25;5071040;28;24430;-71
2022/02/07 00:53:31;;;;;;;0.25;0.10;;;;;;;0.06;100.00;94977.63;5071060;28;24812;-71
2022/02/07 00:55:58;;;;;;;0.00;0.00;;;;;;;0.11;100.00;94977.47;5071065;28;24433;-71
2022/02/07 00:58:24;;;;;;;0.38;0.10;;;;;;;0.17;100.00;94988.28;5070615;28;24508;-70
2022/02/07 01:00:52;;;;;;;0.63;0.20;;;;;;;0.26;100.00;94971.00;5070854;28;25002;-70
2022/02/07 01:03:20;;;;;;;0.50;0.20;;;;;;;0.32;100.00;94986.91;5070797;28;24990;-70
2022/02/07 01:05:47;;;;;;;0.68;0.20;;;;;;;0.36;100.00;94992.72;5070920;28;24834;-70
2022/02/07 01:08:15;;;;;;;0.52;0.20;;;;;;;0.44;100.00;94990.75;5070695;28;24464;-70
2022/02/07 01:10:51;;;;;;;0.75;0.20;;;;;;;0.57;100.00;94981.78;5070667;28;24525;-71
2022/02/07 01:13:28;;;;;;;1.15;0.55;;;;;;;0.65;100.00;94989.97;5070471;28;24429;-71
2022/02/07 01:16:03;;;;;;;0.80;0.30;;;;;;;0.66;100.00;95001.00;5070715;28;24425;-70
2022/02/07 01:19:03;;;;;;;0.80;0.20;;;;;;;0.68;100.00;95005.16;5070503;28;24498;-70
2022/02/07 01:46:38;;;;;;;2.22;0.50;;;;;;;0.94;100.00;95101.06;5070357;28;24521;-71
2022/02/07 01:49:39;;;;;;;1.07;0.40;;;;;;;0.99;100.00;95098.34;5070518;28;24525;-70
2022/02/07 01:52:24;;;;;;;2.00;0.60;;;;;;;1.14;100.00;95118.19;5070137;28;24458;-70
2022/02/07 01:55:02;;;;;;;1.88;0.52;;;;;;;1.15;100.00;95142.84;5070163;28;24426;-70
2022/02/07 01:57:28;;;;;;;2.22;0.60;;;;;;;1.14;100.00;95151.34;5069918;28;24439;-70
2022/02/07 01:59:56;;;;;;;1.98;0.52;;;;;;;1.19;100.00;95158.84;5070403;28;24489;-70
2022/02/07 02:02:23;;;;;;;1.63;0.45;;;;;;;1.10;100.00;95154.91;5070192;28;24418;-70
2022/02/07 02:04:49;;;;;;;2.00;0.70;;;;;;;1.16;100.00;95164.06;5070077;28;25029;-70
2022/02/07 02:07:17;;;;;;;1.20;0.40;;;;;;;1.11;100.00;95173.56;5069768;28;24773;-70
2022/02/07 02:09:44;;;;;;;1.98;0.68;;;;;;;1.10;100.00;95190.59;5070359;28;24426;-70
2022/02/07 02:12:11;;;;;;;2.53;0.85;;;;;;;1.14;100.00;95174.31;5069895;28;24986;-70
2022/02/07 02:14:49;;;;;;;3.20;0.70;;;;;;;1.16;100.00;95195.50;5070188;28;24430;-71
2022/02/07 02:21:02;;;;;;;3.17;0.68;;;;;;;1.16;100.00;95205.69;5045306;28;24980;-71
2022/02/07 02:37:11;;;;;;;2.50;0.80;;;;;;;1.24;100.00;95259.00;5050235;28;24461;-71
2022/02/07 02:47:54;;;;;;;2.63;0.70;;;;;;;0.98;100.00;95308.31;5073187;28;24417;-70
2022/02/07 02:50:29;;;;;;;2.80;0.82;;;;;;;1.06;100.00;95287.69;5073249;28;24982;-71
2022/02/07 02:52:57;;;;;;;2.42;0.70;;;;;;;1.01;100.00;95297.22;5073233;28;24477;-71
2022/02/07 02:55:25;;;;;;;4.05;1.17;;;;;;;1.04;100.00;95322.56;5073045;28;24411;-71
2022/02/07 02:57:51;;;;;;;2.67;1.15;;;;;;;1.07;100.00;95330.13;5073076;28;24438;-71
2022/02/07 03:00:18;;;;;;;3.47;1.10;;;;;;;1.10;100.00;95323.22;5073233;28;24426;-71
2022/02/07 03:02:45;;;;;;;4.22;1.02;;;;;;;1.03;100.00;95347.25;5072658;28;24960;-71
2022/02/07 03:05:11;;;;;;;4.57;1.40;;;;;;;1.08;100.00;95358.16;5073041;28;24529;-70
2022/02/07 03:07:38;;;;;;;3.03;1.00;;;;;;;1.02;100.00;95371.09;5073122;28;24411;-70
2022/02/07 03:10:06;;;;;;;6.18;1.30;;;;;;;1.11;100.00;95362.31;5073366;28;24827;-71
2022/02/07 03:12:43;;;;;;;6.30;1.35;;;;;;;1.11;100.00;95375.06;5073046;28;24426;-70
2022/02/07 03:16:36;;;;;;;4.97;1.23;;;;;;;1.09;100.00;95371.72;5072917;28;24418;-70
2022/02/07 03:17:59;;;;;;;3.92;1.00;;;;;;;1.09;100.00;95384.50;5072287;28;24447;-71
2022/02/07 03:20:25;;;;;;;4.53;1.33;;;;;;;1.05;100.00;95388.03;5072620;28;24529;-70
2022/02/07 03:22:52;;;;;;;5.40;1.40;;;;;;;1.08;100.00;95398.13;5072916;28;24415;-70
2022/02/07 03:25:18;;;;;;;5.00;1.35;;;;;;;1.05;100.00;95393.13;5072734;28;24421;-70
2022/02/07 03:27:46;;;;;;;3.13;0.90;;;;;;;1.05;100.00;95398.22;5072488;28;24414;-70
2022/02/07 03:30:13;;;;;;;4.53;1.23;;;;;;;1.12;100.00;95407.34;5072571;28;24419;-70
2022/02/07 03:32:39;;;;;;;4.03;1.27;;;;;;;1.11;100.00;95419.28;5072354;28;24418;-70
2022/02/07 03:35:06;;;;;;;9.43;1.38;;;;;;;1.02;100.00;95406.78;5072622;28;24498;-70
2022/02/07 03:37:33;;;;;;;3.78;1.08;;;;;;;1.11;100.00;95386.13;5071856;28;24449;-70
2022/02/07 03:39:59;;;;;;;5.07;1.45;;;;;;;1.15;100.00;95379.16;5072509;28;24419;-71
2022/02/07 03:42:26;;;;;;;4.97;1.13;;;;;;;1.12;100.00;95407.34;5072220;28;24789;-70
2022/02/07 03:44:54;;;;;;;2.30;0.90;;;;;;;1.21;100.00;95402.78;5072320;28;24418;-70
2022/02/07 03:47:20;;;;;;;3.95;1.23;;;;;;;1.17;100.00;95426.72;5071975;28;24811;-70
2022/02/07 03:49:46;;;;;;;18.25;1.50;;;;;;;1.14;100.00;95436.19;5072178;28;24425;-70
2022/02/07 03:52:13;;;;;;;6.05;1.65;;;;;;;1.15;100.00;95464.19;5071942;28;25017;-70
2022/02/07 03:54:39;;;;;;;3.53;0.98;;;;;;;1.13;100.00;95500.84;5072089;28;24418;-70
2022/02/07 03:57:06;;;;;;;4.03;1.20;;;;;;;1.14;100.00;95536.47;5071880;28;24421;-71
2022/02/07 03:59:32;;;;;;;3.67;1.13;;;;;;;1.20;100.00;95543.97;5071918;28;24785;-70
2022/02/07 04:02:00;;;;;;;2.70;0.60;;;;;;;0.94;100.00;95549.00;5071871;28;24476;-71
2022/02/07 04:04:27;;;;;;;2.80;0.73;;;;;;;0.54;100.00;95547.56;5071994;28;24414;-70
2022/02/07 04:06:53;;;;;;;2.00;0.60;;;;;;;0.03;100.00;95554.84;5071763;28;24434;-71
2022/02/07 04:09:24;;;;;;;3.88;1.00;;;;;;;-0.16;100.00;95578.19;5072386;28;24414;-71
2022/02/07 04:11:56;;;;;;;1.48;0.43;;;;;;;-0.27;100.00;95603.06;5071816;28;24522;-71
2022/02/07 04:14:24;;;;;;;1.10;0.10;;;;;;;-0.39;100.00;95622.00;5071765;28;24422;-70
2022/02/07 04:16:51;;;;;;;0.90;0.13;;;;;;;-0.37;100.00;95609.22;5071652;28;24510;-70
2022/02/07 04:19:23;;;;;;;0.82;0.22;;;;;;;-0.36;100.00;95613.47;5071726;28;24481;-70
2022/02/07 04:21:51;;;;;;;0.60;0.20;;;;;;;-0.39;100.00;95614.38;5071659;28;24472;-70
2022/02/07 04:24:19;;;;;;;0.55;0.10;;;;;;;-0.33;100.00;95628.69;5071824;28;24927;-70
2022/02/07 04:26:45;;;;;;;0.50;0.20;;;;;;;-0.20;100.00;95631.75;5071145;28;24417;-70
2022/02/07 04:29:11;;;;;;;1.98;0.28;;;;;;;-0.19;100.00;95649.53;5071422;28;24414;-70
2022/02/07 04:31:38;;;;;;;0.85;0.30;;;;;;;-0.07;100.00;95668.81;5071546;28;24476;-70
2022/02/07 04:34:04;;;;;;;2.17;0.30;;;;;;;0.03;100.00;95675.34;5071450;28;24468;-71
2022/02/07 04:36:32;;;;;;;0.93;0.35;;;;;;;0.04;100.00;95694.00;5071175;28;24422;-71
2022/02/07 04:38:59;;;;;;;0.80;0.40;;;;;;;0.12;100.00;95692.97;5071258;28;24478;-70
2022/02/07 04:41:25;;;;;;;4.15;1.08;;;;;;;-0.05;100.00;95698.44;5071055;28;24780;-71
2022/02/07 04:43:56;;;;;;;5.55;1.00;;;;;;;0.03;100.00;95700.81;5071431;28;24425;-71
2022/02/07 04:46:35;;;;;;;5.28;0.68;;;;;;;-0.01;100.00;95717.84;5071109;28;24505;-70
2022/02/07 04:49:13;;;;;;;1.77;0.60;;;;;;;0.01;100.00;95724.66;5070298;28;24815;-70
2022/02/07 04:51:52;;;;;;;4.05;0.88;;;;;;;-0.08;100.00;95738.41;5070845;28;24512;-70
2022/02/07 04:54:43;;;;;;;2.67;0.77;;;;;;;-0.13;100.00;95742.75;5071204;28;24522;-70
2022/02/07 04:57:15;;;;;;;3.13;0.95;;;;;;;-0.10;100.00;95766.44;5070461;28;24427;-69
2022/02/07 04:59:50;;;;;;;5.30;0.90;;;;;;;-0.10;100.00;95763.91;5070812;28;24443;-69
2022/02/07 05:02:24;;;;;;;3.83;0.82;;;;;;;-0.14;100.00;95769.09;5070661;28;24938;-70
2022/02/07 05:04:58;;;;;;;2.10;0.80;;;;;;;-0.15;100.00;95772.50;5070956;28;24522;-70
2022/02/07 05:15:38;;;;;;;4.13;1.00;;;;;;;0.17;100.00;95808.28;5070550;28;24768;-71
2022/02/07 05:18:06;;;;;;;2.97;0.90;;;;;;;0.15;100.00;95812.59;5068887;28;24797;-72
2022/02/07 05:20:32;;;;;;;3.80;0.98;;;;;;;0.18;100.00;95816.75;5070628;28;24492;-72
2022/02/07 05:23:00;;;;;;;4.70;0.98;;;;;;;0.16;100.00;95832.09;5070556;28;24484;-71
2022/02/07 05:25:26;;;;;;;4.60;1.15;;;;;;;0.18;100.00;95827.78;5070568;28;24963;-72
2022/02/07 05:27:53;;;;;;;4.70;0.90;;;;;;;0.29;100.00;95831.81;5070441;28;24422;-70
2022/02/07 05:30:19;;;;;;;2.90;1.02;;;;;;;0.22;100.00;95842.16;5070445;28;24414;-71
2022/02/07 05:32:46;;;;;;;2.50;0.80;;;;;;;0.34;100.00;95835.97;5070421;28;24804;-71
2022/02/07 05:35:12;;;;;;;5.40;1.55;;;;;;;0.32;100.00;95849.59;5070412;28;25009;-70
2022/02/07 05:37:38;;;;;;;3.28;0.88;;;;;;;0.26;100.00;95860.78;5069527;28;24807;-70
2022/02/07 05:40:12;;;;;;;4.07;1.20;;;;;;;0.25;100.00;95879.44;5069410;28;24792;-70
2022/02/07 05:42:39;;;;;;;4.78;1.10;;;;;;;0.26;100.00;95885.38;5070109;28;24431;-72
2022/02/07 05:45:07;;;;;;;4.10;1.10;;;;;;;0.22;100.00;95882.06;5076727;28;24822;-69
2022/02/07 05:47:35;;;;;;;4.85;1.20;;;;;;;0.26;100.00;95888.78;5091173;28;24422;-70
2022/02/07 05:50:01;;;;;;;7.85;1.67;;;;;;;0.24;100.00;95898.16;5090678;28;25011;-70
2022/02/07 05:52:28;;;;;;;2.73;1.23;;;;;;;0.17;100.00;95899.16;5090136;28;24978;-69
2022/02/07 05:54:54;;;;;;;4.40;1.30;;;;;;;0.14;100.00;95902.59;5090422;28;24414;-70
2022/02/07 05:57:22;;;;;;;4.95;1.00;;;;;;;0.11;100.00;95904.34;5090373;28;24414;-70
2022/02/07 05:59:49;;;;;;;4.63;1.50;;;;;;;0.11;100.00;95919.63;5090918;28;24528;-71
2022/02/07 06:02:15;;;;;;;3.88;1.20;;;;;;;0.11;100.00;95930.69;5094276;28;24428;-71
2022/02/07 06:04:41;;;;;;;3.53;1.00;;;;;;;0.09;100.00;95926.47;5094470;28;24467;-72
2022/02/07 06:07:08;;;;;;;8.13;1.52;;;;;;;0.09;100.00;95934.13;5094582;28;24421;-72
2022/02/07 06:09:34;;;;;;;8.85;1.90;;;;;;;0.02;100.00;95935.94;5094668;28;24414;-71
2022/02/07 06:12:01;;;;;;;5.30;1.35;;;;;;;-0.02;100.00;95947.06;5094606;28;24426;-72
2022/02/07 06:14:29;;;;;;;6.45;1.40;;;;;;;-0.06;100.00;95961.53;5094967;28;24426;-72
2022/02/07 06:16:55;;;;;;;4.40;1.25;;;;;;;-0.06;100.00;95959.00;5093989;28;24483;-71
2022/02/07 06:19:21;;;;;;;9.10;1.63;;;;;;;-0.10;100.00;95964.19;5093866;28;24438;-70
2022/02/07 06:21:48;;;;;;;5.20;1.70;;;;;;;-0.11;100.00;95976.06;5094211;28;24444;-70
2022/02/07 06:24:14;;;;;;;7.15;2.00;;;;;;;-0.10;100.00;95969.28;5094104;28;24775;-71
2022/02/07 06:26:41;;;;;;;6.37;1.70;;;;;;;-0.10;100.00;95993.03;5093655;28;24973;-70
2022/02/07 06:29:08;;;;;;;5.72;2.15;;;;;;;-0.11;100.00;95998.13;5094189;28;24779;-71
2022/02/07 06:31:35;;;;;;;7.65;3.42;;;;;;;-0.10;100.00;96004.91;5093756;28;24454;-71
2022/02/07 06:34:02;;;;;;;12.40;4.17;;;;;;;-0.11;100.00;96013.41;5093888;28;24449;-71
2022/02/07 06:36:28;;;;;;;12.77;5.57;;;;;;;-0.08;100.00;96029.47;5093845;28;24425;-70
2022/02/07 06:38:55;;;;;;;9.77;3.30;;;;;;;-0.06;100.00;96029.44;5093685;28;24442;-70
2022/02/07 06:41:21;;;;;;;9.50;3.20;;;;;;;-0.08;100.00;96026.06;5093637;28;24425;-71
2022/02/07 06:43:48;;;;;;;8.23;2.60;;;;;;;-0.08;100.00;96016.72;5093584;28;24429;-71
2022/02/07 06:46:14;;;;;;;9.05;3.30;;;;;;;-0.03;100.00;96026.84;5093899;28;24849;-72
2022/02/07 06:48:42;;;;;;;7.77;1.97;;;;;;;-0.08;100.00;96029.47;5093376;28;24512;-72
2022/02/07 06:51:09;;;;;;;6.63;1.83;;;;;;;-0.07;100.00;96032.88;5093545;28;24468;-70
2022/02/07 06:53:35;;;;;;;9.40;1.92;;;;;;;-0.09;100.00;96037.97;5093707;28;24422;-70
2022/02/07 06:56:02;;;;;;;7.05;1.80;;;;;;;-0.06;100.00;96047.28;5093299;28;24985;-70
2022/02/07 06:58:28;;;;;;;6.05;1.70;;;;;;;-0.05;100.00;96059.13;5093288;28;24434;-69
2022/02/07 07:00:55;;;;;;;5.10;1.83;;;;;;;-0.02;100.00;96067.56;5093402;28;24425;-70
2022/02/07 07:03:22;;;;;;;6.07;1.75;;;;;;;-0.04;100.00;96078.63;5093152;28;24852;-71
2022/02/07 07:05:52;;;;;;;8.20;1.83;;;;;;;-0.04;100.00;96086.25;5093161;28;24422;-72
2022/02/07 07:08:19;;;;;;;7.00;2.17;;;;;;;-0.02;100.00;96082.00;5092990;28;25001;-71
2022/02/07 07:10:46;;;;;;;9.45;1.65;;;;;;;0.01;100.00;96093.84;5092800;28;24421;-72
2022/02/07 07:13:16;;;;;;;7.90;2.08;;;;;;;-0.03;100.00;96100.69;5092201;28;24533;-72
2022/02/07 07:15:49;;;;;;;11.00;2.33;;;;;;;-0.03;100.00;96121.91;5092777;28;24962;-72
2022/02/07 07:18:17;;;;;;;6.22;1.60;;;;;;;-0.06;100.00;96116.84;5092284;28;25049;-72
2022/02/07 07:20:44;;;;;;;5.55;1.40;;;;;;;-0.03;100.00;96116.81;5092994;28;24850;-72
2022/02/07 07:23:12;;;;;;;5.78;1.60;;;;;;;-0.09;100.00;96124.53;5093097;28;24939;-76
2022/02/07 07:25:40;;;;;;;5.88;1.60;;;;;;;-0.02;100.00;96130.38;5092947;28;25013;-70
2022/02/07 07:28:10;;;;;;;8.00;2.13;;;;;;;-0.13;100.00;96130.53;5092770;28;24433;-70
2022/02/07 07:30:41;;;;;;;6.68;1.73;;;;;;;-0.10;100.00;96133.03;5092694;28;24923;-71
2022/02/07 07:33:11;;;;;;;4.80;1.67;;;;;;;-0.11;100.00;96146.66;5093109;28;24418;-70
2022/02/07 07:35:38;;;;;;;4.90;1.20;;;;;;;-0.14;100.00;96148.41;5092558;28;24959;-71
2022/02/07 07:38:04;;;;;;;7.03;1.65;;;;;;;-0.08;100.00;96153.38;5092048;28;24970;-70
2022/02/07 07:40:32;;;;;;;6.93;1.70;;;;;;;-0.07;100.00;96155.91;5078520;28;24458;-70
2022/02/07 07:42:59;;;;;;;7.60;1.85;;;;;;;0.08;100.00;96161.66;5072130;28;24415;-70
2022/02/07 07:45:31;;;;;;;12.85;1.88;;;;;;;0.15;100.00;96171.72;5069084;28;24434;-71
2022/02/07 07:48:01;;;;;;;6.28;1.50;;;;;;;0.28;100.00;96171.50;5052116;28;24533;-73
2022/02/07 07:50:32;;;;;;;6.18;1.65;;;;;;;0.38;100.00;96180.69;5052122;28;24426;-70
2022/02/07 07:53:08;;;;;;;12.15;1.70;;;;;;;0.46;100.00;96182.22;5051934;28;24965;-72
2022/02/07 08:01:23;;;;;;;5.35;1.58;;;;;;;0.57;100.00;96193.97;5069653;28;24998;-69
2022/02/07 08:03:52;;;;;;;8.05;2.00;;;;;;;0.77;100.00;96201.25;5071723;28;24430;-70
2022/02/07 08:06:22;;;;;;;7.22;1.63;;;;;;;0.57;100.00;96206.72;5071811;28;24414;-70
2022/02/07 08:09:03;;;;;;;7.35;1.98;;;;;;;0.84;100.00;96213.88;5074929;28;24993;-70
2022/02/07 08:11:31;;;;;;;5.32;1.90;;;;;;;0.67;100.00;96209.09;5074078;28;24895;-71
2022/02/07 08:13:59;;;;;;;6.68;1.75;;;;;;;0.82;100.00;96207.97;5071876;28;24462;-71
2022/02/07 08:16:26;;;;;;;5.15;1.88;;;;;;;0.64;100.00;96211.69;5059575;28;24791;-72
2022/02/07 08:18:54;;;;;;;6.20;2.00;;;;;;;0.90;100.00;96207.84;5051669;28;24447;-74
2022/02/07 08:21:21;;;;;;;9.52;2.67;;;;;;;0.94;100.00;96219.66;5051934;28;24435;-70
2022/02/07 08:23:47;;;;;;;8.95;2.20;;;;;;;0.89;100.00;96223.97;5051476;28;24782;-71
2022/02/07 08:26:14;;;;;;;4.90;2.10;;;;;;;0.91;100.00;96230.75;5050806;28;24783;-72
2022/02/07 08:28:42;;;;;;;6.18;1.83;;;;;;;0.79;100.00;96241.16;5056678;28;24800;-71
2022/02/07 08:31:09;;;;;;;4.95;1.75;;;;;;;0.80;100.00;96242.00;5082008;28;24434;-71
2022/02/07 08:33:35;;;;;;;12.53;1.93;;;;;;;0.70;100.00;96247.28;5071202;28;24465;-71
2022/02/07 08:36:05;;;;;;;6.20;1.90;;;;;;;0.67;100.00;96251.56;5071186;28;25007;-71
2022/02/07 08:38:32;;;;;;;6.72;1.92;;;;;;;0.61;100.00;96260.16;5070735;28;24422;-72
2022/02/07 08:40:59;;;;;;;6.27;1.60;;;;;;;0.82;100.00;96266.63;5068378;28;24574;-72
2022/02/07 08:43:25;;;;;;;8.50;1.98;;;;;;;0.59;100.00;96266.13;5070860;28;24521;-71
2022/02/07 08:45:53;;;;;;;11.05;1.90;;;;;;;0.58;100.00;96261.91;5064174;28;24492;-71
2022/02/07 08:48:19;;;;;;;6.90;2.03;;;;;;;0.67;100.00;96270.25;5051105;28;24422;-71
2022/02/07 08:50:51;;;;;;;5.63;1.55;;;;;;;0.71;100.00;96279.53;5050267;28;24427;-71
2022/02/07 08:53:17;;;;;;;5.22;1.80;;;;;;;0.84;100.00;96284.44;5051010;28;24422;-71
2022/02/07 08:55:52;;;;;;;5.40;1.87;;;;;;;0.71;100.00;96288.91;5050623;28;24505;-72
2022/02/07 08:58:23;;;;;;;6.43;2.10;;;;;;;0.73;100.00;96295.63;5051099;28;24438;-72
2022/02/07 09:00:54;;;;;;;8.02;2.00;;;;;;;0.94;100.00;96301.28;5050295;28;25195;-72
2022/02/07 09:03:31;;;;;;;9.00;2.67;;;;;;;0.95;100.00;96302.94;5050927;28;24451;-72
2022/02/07 09:06:13;;;;;;;7.37;2.20;;;;;;;1.07;100.00;96312.09;5050305;28;24514;-72
2022/02/07 09:08:53;;;;;;;9.77;2.35;;;;;;;1.01;100.00;96312.22;5053753;28;24428;-71
2022/02/07 09:11:21;;;;;;;9.88;2.47;;;;;;;0.96;100.00;96307.16;5055720;28;24432;-71
2022/02/07 09:13:48;;;;;;;7.72;2.08;;;;;;;1.00;100.00;96313.06;5050738;28;24502;-71
2022/02/07 09:16:29;;;;;;;7.47;2.22;;;;;;;1.23;100.00;96325.47;5059994;28;24433;-71
2022/02/07 09:18:58;;;;;;;11.45;2.17;;;;;;;1.23;100.00;96333.09;5070685;28;24831;-72
2022/02/07 09:21:25;;;;;;;4.90;2.10;;;;;;;1.18;100.00;96338.25;5070470;28;24426;-71
2022/02/07 09:23:52;;;;;;;13.43;2.17;;;;;;;1.16;100.00;96343.41;5070586;28;24418;-71
2022/02/07 09:26:18;;;;;;;12.77;2.88;;;;;;;1.16;100.00;96343.41;5069913;28;24434;-71
2022/02/07 09:28:45;;;;;;;7.90;2.37;;;;;;;1.05;100.00;96350.41;5070377;28;24410;-71
2022/02/07 09:31:13;;;;;;;11.50;2.05;;;;;;;1.13;100.00;96360.47;5069709;28;24457;-71
2022/02/07 09:33:41;;;;;;;11.10;2.20;;;;;;;1.06;100.00;96359.72;5070634;28;24464;-71
2022/02/07 09:36:08;;;;;;;9.68;2.28;;;;;;;1.20;100.00;96357.78;5069921;28;24418;-71
2022/02/07 09:38:35;;;;;;;6.38;2.13;;;;;;;1.02;100.00;96357.25;5069768;28;24468;-71
2022/02/07 09:41:02;;;;;;;7.50;2.47;;;;;;;1.16;100.00;96353.63;5059534;28;24462;-71
2022/02/07 09:43:33;;;;;;;7.13;2.15;;;;;;;1.24;100.00;96358.59;5050001;28;24514;-71
2022/02/07 09:46:07;;;;;;;8.68;2.17;;;;;;;1.33;100.00;96365.22;5057736;28;24435;-71
2022/02/07 09:48:34;;;;;;;7.13;2.22;;;;;;;1.29;100.00;96363.59;5070185;28;24423;-71
2022/02/07 09:51:01;;;;;;;8.10;2.35;;;;;;;1.19;100.00;96368.88;5070116;28;24430;-71
2022/02/07 09:53:30;;;;;;;11.40;2.80;;;;;;;1.26;100.00;96374.72;5069887;28;24423;-71
2022/02/07 09:55:57;;;;;;;11.82;2.70;;;;;;;1.39;100.00;96381.28;5069859;28;24430;-72
2022/02/07 09:58:23;;;;;;;6.70;2.40;;;;;;;1.35;100.00;96389.03;5069941;28;24519;-71
2022/02/07 10:00:50;;;;;;;8.95;2.72;;;;;;;1.55;100.00;96402.28;5069608;28;24465;-71
2022/02/07 10:03:20;;;;;;;8.35;2.33;;;;;;;1.65;100.00;96403.81;5070271;28;24419;-71
2022/02/07 10:05:52;;;;;;;6.13;2.13;;;;;;;1.39;100.00;96405.97;5070070;28;24465;-71
2022/02/07 10:08:34;;;;;;;9.20;2.38;;;;;;;1.43;100.00;96412.72;5069601;28;24484;-71
2022/02/07 10:11:20;;;;;;;11.10;2.65;;;;;;;1.61;100.00;96411.56;5072038;28;25037;-71
2022/02/07 10:13:55;;;;;;;9.48;2.40;;;;;;;1.59;100.00;96411.56;5090142;28;25028;-71
2022/02/07 10:16:38;;;;;;;7.80;2.42;;;;;;;1.69;100.00;96427.59;5078667;28;24496;-72
2022/02/07 10:22:08;;;;;;;26.10;2.73;;;;;;;1.94;100.00;96420.31;5068046;28;21162;-72
2022/02/07 10:38:59;;;;;;;9.77;2.50;;;;;;;1.81;100.00;96457.16;5107846;27;24397;-71
2022/02/07 10:41:43;;;;;;;7.73;2.53;;;;;;;1.66;100.00;96455.72;5094956;28;25105;-72
2022/02/07 10:44:30;;;;;;;8.52;2.72;;;;;;;1.97;100.00;96461.16;5087882;28;24529;-72
2022/02/07 10:46:57;;;;;;;7.68;2.60;;;;;;;2.06;100.00;96463.53;5071403;28;24427;-72
2022/02/07 10:49:23;;;;;;;9.00;2.80;;;;;;;2.07;100.00;96465.19;5067757;28;24552;-72
2022/02/07 10:51:58;;;;;;;8.73;2.78;;;;;;;2.00;100.00;96476.41;5067508;28;24469;-71
2022/02/07 10:54:27;;;;;;;11.40;3.38;;;;;;;2.10;100.00;96477.94;5082278;28;25039;-76
2022/02/07 10:56:54;;;;;;;9.15;2.65;;;;;;;2.15;100.00;96490.63;5087026;28;25021;-72
2022/02/07 10:59:22;;;;;;;6.72;2.50;;;;;;;2.33;100.00;96500.50;5087682;28;24422;-72
2022/02/07 11:02:34;;;;;;;9.50;2.70;;;;;;;2.16;100.00;96515.31;5081323;28;24474;-72
2022/02/07 11:04:58;;;;;;;6.82;2.42;;;;;;;1.73;100.00;96520.31;5077760;28;24573;-71
2022/02/07 11:07:27;;;;;;;8.50;2.00;;;;;;;1.93;100.00;96524.22;5082128;28;24968;-71
2022/02/07 11:10:06;;;;;;;8.38;2.25;;;;;;;2.19;100.00;96535.72;5084328;28;24456;-71
2022/02/07 11:12:56;;;;;;;11.93;3.17;;;;;;;2.40;100.00;96542.13;5087320;28;24523;-71
2022/02/07 11:15:30;;;;;;;10.38;3.65;;;;;;;2.48;100.00;96550.50;5084207;28;24454;-72
2022/02/07 11:18:13;;;;;;;11.27;3.00;;;;;;;2.43;100.00;96555.72;5085293;28;24984;-72
2022/02/07 11:20:58;;;;;;;15.60;2.65;;;;;;;2.09;100.00;96549.50;5087228;28;24454;-72
2022/02/07 11:23:36;;;;;;;11.93;2.80;;;;;;;1.90;100.00;96561.75;5086994;28;24476;-72
2022/02/07 11:26:27;;;;;;;8.05;2.35;;;;;;;1.96;100.00;96582.06;5087061;28;24483;-72
2022/02/07 11:28:54;;;;;;;10.55;2.83;;;;;;;1.98;100.00;96584.63;5086886;28;24792;-72
2022/02/07 11:31:29;;;;;;;6.35;2.20;;;;;;;1.99;100.00;96587.13;5086772;28;24493;-72
2022/02/07 11:34:01;;;;;;;12.43;2.80;;;;;;;2.13;100.00;96589.47;5087270;28;24434;-72
2022/02/07 11:36:30;;;;;;;8.88;2.70;;;;;;;2.41;100.00;96594.94;5088555;28;24992;-71
2022/02/07 11:39:06;;;;;;;9.50;2.60;;;;;;;2.50;100.00;96604.19;5099671;28;24513;-72
2022/02/07 11:42:12;;;;;;;8.02;2.50;;;;;;;2.58;100.00;96620.22;5101115;28;24434;-72
2022/02/07 11:45:24;;;;;;;8.17;2.60;;;;;;;2.36;100.00;96624.88;5107265;28;24420;-72
2022/02/07 11:47:56;;;;;;;7.40;2.15;;;;;;;2.23;100.00;96642.13;5085663;28;24552;-72
2022/02/07 11:50:23;;;;;;;7.78;3.50;;;;;;;2.25;100.00;96636.97;5072772;28;24429;-72
2022/02/07 11:52:53;;;;;;;10.00;2.67;;;;;;;2.16;100.00;96640.53;5072477;28;24443;-72
2022/02/07 11:55:23;;;;;;;10.60;2.78;;;;;;;2.13;100.00;96646.53;5089215;28;24433;-72
2022/02/07 11:57:57;;;;;;;8.20;2.35;;;;;;;1.98;100.00;96658.72;5092921;28;24454;-72
2022/02/07 12:00:30;;;;;;;8.38;2.42;;;;;;;1.87;100.00;96689.50;5092925;28;24426;-72
2022/02/07 12:03:01;;;;;;;14.75;2.60;;;;;;;1.80;100.00;96680.25;5092957;28;24981;-71
2022/02/07 12:05:30;;;;;;;7.97;2.70;;;;;;;1.86;100.00;96687.84;5092759;28;24788;-73
2022/02/07 12:08:02;;;;;;;8.43;2.50;;;;;;;1.84;100.00;96692.09;5092881;28;24414;-72
2022/02/07 12:10:37;;;;;;;8.25;2.22;;;;;;;1.81;100.00;96690.44;5092147;28;24429;-72
2022/02/07 12:13:27;;;;;;;8.82;2.30;;;;;;;1.93;100.00;96712.44;5092994;28;24951;-72
2022/02/07 12:15:54;;;;;;;8.63;2.53;;;;;;;1.96;100.00;96702.13;5079123;28;24441;-72
2022/02/07 12:18:23;;;;;;;9.38;2.80;;;;;;;1.82;100.00;96706.63;5092617;28;24540;-72
2022/02/07 12:20:51;;;;;;;13.65;2.88;;;;;;;1.78;100.00;96710.94;5092891;28;24784;-72
2022/02/07 12:23:19;;;;;;;13.68;2.70;;;;;;;1.78;100.00;96717.72;5092635;28;25008;-72
2022/02/07 12:25:49;;;;;;;6.10;2.10;;;;;;;1.66;100.00;96716.16;5085422;28;24971;-72
2022/02/07 12:28:28;;;;;;;10.35;2.40;;;;;;;1.63;100.00;96718.75;5071923;28;24425;-72
2022/02/07 12:31:03;;;;;;;8.45;2.40;;;;;;;1.79;100.00;96710.06;5078873;28;25026;-72
2022/02/07 12:33:30;;;;;;;10.77;2.88;;;;;;;1.82;100.00;96720.22;5092621;28;24453;-71
2022/02/07 12:35:57;;;;;;;6.03;2.53;;;;;;;1.83;100.00;96715.97;5092697;28;24432;-72
2022/02/07 12:38:25;;;;;;;8.47;2.60;;;;;;;1.87;100.00;96713.34;5091889;28;24481;-72
2022/02/07 12:40:52;;;;;;;5.47;2.35;;;;;;;1.78;100.00;96725.38;5082699;28;24513;-72
2022/02/07 12:43:21;;;;;;;11.18;2.97;;;;;;;1.83;100.00;96719.34;5092664;28;24414;-72
2022/02/07 12:45:48;;;;;;;10.15;2.88;;;;;;;1.93;100.00;96722.66;5091933;28;24441;-72
2022/02/07 12:48:18;;;;;;;10.37;3.00;;;;;;;2.01;100.00;96725.09;5092020;28;24434;-72
2022/02/07 12:50:50;;;;;;;10.77;2.70;;;;;;;1.95;100.00;96726.00;5092189;28;24426;-72
2022/02/07 12:53:17;;;;;;;8.00;2.33;;;;;;;2.01;100.00;96732.75;5091972;28;24410;-72
2022/02/07 12:55:45;;;;;;;13.40;3.22;;;;;;;2.14;100.00;96739.38;5078519;28;24515;-72
2022/02/07 12:58:12;;;;;;;11.00;3.33;;;;;;;2.24;100.00;96738.38;5071374;28;24998;-73
2022/02/07 13:00:40;;;;;;;10.93;2.97;;;;;;;2.22;100.00;96727.31;5070301;28;24431;-73
2022/02/07 13:03:07;;;;;;;7.60;2.63;;;;;;;2.07;100.00;96732.66;5071480;28;24776;-72
2022/02/07 13:05:35;;;;;;;10.93;3.17;;;;;;;2.04;100.00;96723.34;5070459;28;24808;-73
2022/02/07 13:08:02;;;;;;;7.33;2.27;;;;;;;1.96;100.00;96742.19;5104186;28;24464;-71